createdAt,value
2023-03-11T00:01:03.017Z,-0.66
2023-03-11T00:03:29.536Z,-0.40
2023-03-11T00:05:58.528Z,-0.32
2023-03-11T00:08:25.703Z,-0.44
2023-03-11T00:10:55.328Z,-0.41
2023-03-11T00:13:28.146Z,-0.64
2023-03-11T00:15:56.264Z,-0.65
2023-03-11T00:18:28.089Z,-0.41
2023-03-11T00:20:56.110Z,-0.44
2023-03-11T00:23:23.128Z,-0.44
2023-03-11T00:25:49.644Z,-0.57
2023-03-11T00:28:17.160Z,-0.79
2023-03-11T00:30:45.649Z,-0.65
2023-03-11T00:33:15.983Z,-0.70
2023-03-11T00:35:43.795Z,-0.75
2023-03-11T00:38:15.280Z,-0.81
2023-03-11T00:40:42.960Z,-0.79
2023-03-11T00:43:10.711Z,-0.59
2023-03-11T00:45:37.154Z,-0.61
2023-03-11T00:48:04.581Z,-0.73
2023-03-11T00:50:33.633Z,-0.65
2023-03-11T00:53:00.431Z,-0.65
2023-03-11T00:55:30.234Z,-0.71
2023-03-11T00:58:02.926Z,-0.67
2023-03-11T01:00:30.792Z,-0.77
2023-03-11T01:02:57.655Z,-0.76
2023-03-11T01:05:27.940Z,-0.64
2023-03-11T01:07:57.796Z,-0.55
2023-03-11T01:10:25.271Z,-0.72
2023-03-11T01:12:51.789Z,-0.96
2023-03-11T01:15:25.120Z,-0.64
2023-03-11T01:17:51.540Z,-0.59
2023-03-11T01:20:18.363Z,-0.54
2023-03-11T01:22:45.019Z,-0.56
2023-03-11T01:25:16.061Z,-0.73
2023-03-11T01:27:43.075Z,-0.59
2023-03-11T01:30:12.882Z,-0.71
2023-03-11T01:32:39.434Z,-0.63
2023-03-11T01:35:06.346Z,-0.74
2023-03-11T01:37:32.882Z,-0.75
2023-03-11T01:39:59.338Z,-0.79
2023-03-11T01:42:25.859Z,-0.76
2023-03-11T01:44:52.313Z,-0.90
2023-03-11T01:47:41.108Z,-0.97
2023-03-11T01:50:12.641Z,-0.76
2023-03-11T01:52:40.062Z,-0.81
2023-03-11T01:55:07.241Z,-0.64
2023-03-11T01:57:33.894Z,-0.72
2023-03-11T02:00:05.971Z,-0.64
2023-03-11T02:02:49.262Z,-0.60
2023-03-11T02:05:20.855Z,-0.64
2023-03-11T02:07:49.283Z,-0.52
2023-03-11T02:10:17.282Z,-0.58
2023-03-11T02:12:45.317Z,-0.62
2023-03-11T02:15:13.087Z,-0.49
2023-03-11T02:17:40.788Z,-0.55
2023-03-11T02:20:29.848Z,-0.63
2023-03-11T02:22:57.351Z,-1.12
2023-03-11T02:25:45.730Z,-0.57
2023-03-11T02:28:15.513Z,-0.73
2023-03-11T02:30:43.903Z,-0.85
2023-03-11T02:33:12.104Z,-0.80
2023-03-11T02:35:38.582Z,-0.80
2023-03-11T02:38:05.109Z,-0.89
2023-03-11T02:40:35.234Z,-0.88
2023-03-11T02:43:05.191Z,-1.15
2023-03-11T02:45:32.198Z,-1.15
2023-03-11T02:48:00.483Z,-0.99
2023-03-11T02:50:28.976Z,-1.13
2023-03-11T02:52:55.998Z,-1.03
2023-03-11T02:55:22.556Z,-1.10
2023-03-11T02:57:49.156Z,-1.02
2023-03-11T03:00:17.845Z,-0.99
2023-03-11T03:02:45.787Z,-1.06
2023-03-11T03:05:13.348Z,-1.07
2023-03-11T03:07:39.793Z,-1.09
2023-03-11T03:10:06.762Z,-1.16
2023-03-11T03:12:33.475Z,-1.10
2023-03-11T03:14:59.910Z,-1.12
2023-03-11T03:17:26.574Z,-1.27
2023-03-11T03:19:53.083Z,-1.11
2023-03-11T03:22:19.616Z,-1.09
2023-03-11T03:24:46.142Z,-0.98
2023-03-11T03:27:12.602Z,-1.06
2023-03-11T03:29:39.058Z,-1.16
2023-03-11T03:32:05.914Z,-1.10
2023-03-11T03:34:32.475Z,-1.00
2023-03-11T03:36:58.900Z,-0.99
2023-03-11T03:39:25.339Z,-1.08
2023-03-11T03:41:51.760Z,-1.06
2023-03-11T03:44:18.297Z,-0.96
2023-03-11T03:46:44.842Z,-0.89
2023-03-11T03:49:11.291Z,-0.91
2023-03-11T03:51:37.743Z,-0.87
2023-03-11T03:54:04.455Z,-1.01
2023-03-11T03:56:30.885Z,-1.06
2023-03-11T03:58:57.309Z,-0.92
2023-03-11T04:01:23.727Z,-1.05
2023-03-11T04:03:50.298Z,-0.97
2023-03-11T04:06:25.627Z,-1.08
2023-03-11T04:08:54.067Z,-0.93
2023-03-11T04:11:21.457Z,-0.95
2023-03-11T04:13:48.030Z,-1.02
2023-03-11T04:16:20.787Z,-1.11
2023-03-11T04:18:47.703Z,-0.94
2023-03-11T04:21:14.194Z,-1.00
2023-03-11T04:23:40.667Z,-0.94
2023-03-11T04:26:07.141Z,-0.96
2023-03-11T04:28:33.679Z,-0.98
2023-03-11T04:31:00.147Z,-1.06
2023-03-11T04:33:26.569Z,-1.11
2023-03-11T04:35:53.040Z,-1.06
2023-03-11T04:38:19.535Z,-1.05
2023-03-11T04:40:45.977Z,-1.04
2023-03-11T04:43:12.464Z,-1.10
2023-03-11T04:45:40.040Z,-1.13
2023-03-11T04:48:06.705Z,-1.22
2023-03-11T04:50:33.174Z,-1.19
2023-03-11T04:52:59.596Z,-1.35
2023-03-11T04:55:26.240Z,-1.46
2023-03-11T04:57:52.653Z,-1.53
2023-03-11T05:00:24.586Z,-1.60
2023-03-11T05:02:51.559Z,-1.65
2023-03-11T05:05:21.142Z,-1.71
2023-03-11T05:07:47.931Z,-1.85
2023-03-11T05:10:15.261Z,-1.94
2023-03-11T05:12:41.657Z,-1.94
2023-03-11T05:15:08.315Z,-2.06
2023-03-11T05:17:34.765Z,-1.93
2023-03-11T05:20:01.221Z,-1.99
2023-03-11T05:22:27.606Z,-2.03
2023-03-11T05:24:54.012Z,-2.28
2023-03-11T05:27:21.303Z,-2.24
2023-03-11T05:29:47.784Z,-2.25
2023-03-11T05:32:14.314Z,-2.39
2023-03-11T05:34:43.519Z,-2.45
2023-03-11T05:37:09.979Z,-2.48
2023-03-11T05:39:37.761Z,-2.56
2023-03-11T05:42:13.301Z,-2.62
2023-03-11T05:44:39.808Z,-2.72
2023-03-11T05:47:06.370Z,-2.60
2023-03-11T05:49:33.106Z,-2.62
2023-03-11T05:51:59.571Z,-2.63
2023-03-11T05:54:26.309Z,-2.70
2023-03-11T05:56:53.050Z,-2.67
2023-03-11T05:59:19.766Z,-2.68
2023-03-11T06:01:46.371Z,-2.75
2023-03-11T06:04:13.221Z,-2.73
2023-03-11T06:06:41.453Z,-2.65
2023-03-11T06:09:12.657Z,-2.59
2023-03-11T06:11:39.064Z,-2.66
2023-03-11T06:14:05.595Z,-2.65
2023-03-11T06:16:32.049Z,-2.64
2023-03-11T06:19:00.656Z,-2.61
2023-03-11T06:21:27.185Z,-2.72
2023-03-11T06:23:53.838Z,-2.79
2023-03-11T06:26:21.791Z,-2.69
2023-03-11T06:28:49.418Z,-2.61
2023-03-11T06:31:19.522Z,-2.57
2023-03-11T06:33:47.109Z,-2.64
2023-03-11T06:36:16.404Z,-2.55
2023-03-11T06:38:43.281Z,-2.54
2023-03-11T06:41:10.578Z,-2.59
2023-03-11T06:43:37.230Z,-2.63
2023-03-11T06:46:18.758Z,-2.61
2023-03-11T06:48:47.862Z,-2.52
2023-03-11T06:51:14.477Z,-2.47
2023-03-11T06:53:41.423Z,-2.58
2023-03-11T06:56:13.308Z,-2.57
2023-03-11T06:58:42.088Z,-2.50
2023-03-11T07:01:16.059Z,-2.46
2023-03-11T07:03:43.182Z,-2.35
2023-03-11T07:06:17.848Z,-2.36
2023-03-11T07:08:46.514Z,-2.23
2023-03-11T07:11:15.854Z,-2.18
2023-03-11T07:13:43.042Z,-2.11
2023-03-11T07:16:24.018Z,-2.11
2023-03-11T07:18:52.105Z,-1.92
2023-03-11T07:21:21.327Z,-1.82
2023-03-11T07:23:51.677Z,-1.89
2023-03-11T07:26:18.732Z,-1.74
2023-03-11T07:28:45.678Z,-1.69
2023-03-11T07:31:16.643Z,-1.53
2023-03-11T07:33:43.636Z,-1.49
2023-03-11T07:36:16.630Z,-1.47
2023-03-11T07:38:44.099Z,-1.43
2023-03-11T07:41:12.387Z,-1.36
2023-03-11T07:43:40.145Z,-1.28
2023-03-11T07:46:16.792Z,-1.26
2023-03-11T07:48:43.242Z,-1.23
2023-03-11T07:51:16.069Z,-1.21
2023-03-11T07:53:43.099Z,-1.10
2023-03-11T07:56:11.749Z,-1.04
2023-03-11T07:58:38.813Z,-0.96
2023-03-11T08:01:10.644Z,-0.90
2023-03-11T08:03:38.506Z,-0.85
2023-03-11T08:06:16.060Z,-0.90
2023-03-11T08:08:43.422Z,-0.89
2023-03-11T08:11:11.207Z,-0.83
2023-03-11T08:13:37.676Z,-0.83
2023-03-11T08:16:06.099Z,-0.80
2023-03-11T08:18:32.873Z,-0.83
2023-03-11T08:20:59.923Z,-0.69
2023-03-11T08:23:26.380Z,-0.63
2023-03-11T08:25:52.798Z,-0.62
2023-03-11T08:28:21.935Z,-0.62
2023-03-11T08:30:48.524Z,-0.58
2023-03-11T08:33:14.963Z,-0.63
2023-03-11T08:35:41.422Z,-0.52
2023-03-11T08:38:08.129Z,-0.48
2023-03-11T08:40:34.629Z,-0.46
2023-03-11T08:43:01.081Z,-0.36
2023-03-11T08:45:27.501Z,-0.28
2023-03-11T08:47:54.101Z,-0.30
2023-03-11T08:50:20.702Z,-0.24
2023-03-11T08:52:47.572Z,-0.14
2023-03-11T08:55:17.801Z,-0.11
2023-03-11T08:57:44.780Z,-0.14
2023-03-11T09:00:13.386Z,-0.10
2023-03-11T09:02:41.814Z,0.02
2023-03-11T09:05:09.206Z,0.04
2023-03-11T09:07:36.096Z,0.11
2023-03-11T09:10:02.709Z,0.22
2023-03-11T09:12:30.299Z,0.28
2023-03-11T09:14:56.740Z,0.47
2023-03-11T09:17:23.387Z,0.47
2023-03-11T09:19:50.008Z,0.54
2023-03-11T09:22:16.451Z,0.61
2023-03-11T09:24:42.866Z,0.66
2023-03-11T09:27:09.283Z,0.76
2023-03-11T09:29:35.755Z,0.79
2023-03-11T09:32:02.204Z,0.81
2023-03-11T09:34:28.633Z,1.00
2023-03-11T09:36:55.025Z,1.04
2023-03-11T09:39:21.546Z,1.15
2023-03-11T09:42:17.798Z,1.16
2023-03-11T09:45:24.853Z,1.24
2023-03-11T09:47:57.190Z,1.44
2023-03-11T09:50:31.383Z,1.68
2023-03-11T09:52:58.054Z,1.96
2023-03-11T09:55:39.642Z,2.41
2023-03-11T09:58:17.753Z,2.90
2023-03-11T10:00:44.738Z,3.58
2023-03-11T10:03:26.485Z,4.35
2023-03-11T10:05:58.560Z,5.23
2023-03-11T10:08:33.020Z,5.81
2023-03-11T10:11:21.476Z,6.40
2023-03-11T10:14:02.009Z,7.29
2023-03-11T10:16:51.255Z,8.02
2023-03-11T10:19:46.764Z,8.60
2023-03-11T10:22:38.583Z,9.26
2023-03-11T10:25:17.170Z,9.28
2023-03-11T10:27:51.884Z,9.23
2023-03-11T10:30:33.774Z,9.60
2023-03-11T10:33:04.779Z,10.06
2023-03-11T10:35:41.438Z,10.20
2023-03-11T10:38:15.025Z,10.21
2023-03-11T10:40:45.125Z,10.37
2023-03-11T10:43:17.148Z,10.72
2023-03-11T10:45:45.872Z,10.80
2023-03-11T10:48:17.667Z,10.97
2023-03-11T10:51:12.831Z,10.48
2023-03-11T10:53:52.040Z,10.12
2023-03-11T10:56:31.074Z,9.86
2023-03-11T10:58:58.875Z,9.70
2023-03-11T11:01:26.288Z,9.74
2023-03-11T11:03:55.863Z,9.56
2023-03-11T11:06:26.700Z,10.21
2023-03-11T11:09:11.613Z,10.66
2023-03-11T11:11:39.528Z,10.50
2023-03-11T11:14:06.174Z,10.59
2023-03-11T11:16:35.094Z,10.58
2023-03-11T11:19:08.024Z,10.93
2023-03-11T11:21:45.413Z,11.76
2023-03-11T11:24:25.369Z,11.75
2023-03-11T11:27:19.005Z,11.76
2023-03-11T11:29:46.628Z,11.28
2023-03-11T11:32:21.995Z,11.60
2023-03-11T11:34:57.518Z,11.50
2023-03-11T11:37:26.988Z,11.17
2023-03-11T11:39:58.318Z,10.83
2023-03-11T11:42:28.143Z,11.35
2023-03-11T11:45:03.535Z,11.55
2023-03-11T11:47:36.040Z,11.59
2023-03-11T11:50:11.313Z,12.15
2023-03-11T11:52:45.193Z,11.83
2023-03-11T11:55:24.186Z,11.52
2023-03-11T11:57:51.687Z,11.47
2023-03-11T12:00:25.446Z,11.52
2023-03-11T12:03:37.755Z,11.25
2023-03-11T12:06:23.537Z,11.47
2023-03-11T12:09:24.218Z,11.47
2023-03-11T12:12:12.882Z,11.76
2023-03-11T12:14:42.180Z,11.78
2023-03-11T12:17:12.784Z,10.65
2023-03-11T12:20:20.910Z,9.23
2023-03-11T12:23:02.540Z,10.01
2023-03-11T12:30:27.115Z,11.94
2023-03-11T12:33:12.536Z,9.50
2023-03-11T12:35:39.805Z,9.52
2023-03-11T12:41:42.693Z,12.27
2023-03-11T12:44:23.121Z,12.11
2023-03-11T12:46:58.740Z,12.62
2023-03-11T12:52:58.530Z,11.63
2023-03-11T12:55:31.038Z,13.18
2023-03-11T12:58:36.139Z,11.38
2023-03-11T13:01:08.832Z,12.57
2023-03-11T13:03:56.717Z,13.63
2023-03-11T13:11:48.551Z,14.83
2023-03-11T13:15:10.286Z,14.50
2023-03-11T13:17:39.153Z,15.62
2023-03-11T13:38:16.978Z,16.13
2023-03-11T13:40:44.334Z,15.86
2023-03-11T13:43:19.587Z,16.00
2023-03-11T13:46:05.355Z,16.48
2023-03-11T13:48:44.853Z,16.36
2023-03-11T13:51:32.951Z,16.66
2023-03-11T13:54:22.867Z,17.23
2023-03-11T13:56:56.817Z,16.44
2023-03-11T13:59:32.862Z,15.61
2023-03-11T14:02:00.676Z,14.73
2023-03-11T14:04:30.069Z,14.82
2023-03-11T14:06:56.996Z,15.33
2023-03-11T14:09:25.641Z,14.91
2023-03-11T14:12:03.620Z,15.40
2023-03-11T14:14:56.043Z,15.73
2023-03-11T14:17:33.430Z,15.86
2023-03-11T14:20:17.291Z,15.64
2023-03-11T14:22:46.277Z,15.71
2023-03-11T14:25:36.364Z,16.59
2023-03-11T14:28:09.534Z,16.22
2023-03-11T14:30:36.166Z,16.12
2023-03-11T14:33:21.882Z,16.64
2023-03-11T14:35:52.530Z,16.40
2023-03-11T14:38:23.903Z,15.94
2023-03-11T14:41:15.624Z,15.69
2023-03-11T14:43:46.010Z,15.75
2023-03-11T14:46:18.035Z,16.00
2023-03-11T14:48:44.688Z,16.47
2023-03-11T14:51:23.662Z,16.42
2023-03-11T14:53:57.672Z,16.36
2023-03-11T14:56:34.416Z,15.69
2023-03-11T14:59:10.955Z,16.00
2023-03-11T15:01:43.117Z,16.10
2023-03-11T15:04:13.664Z,16.14
2023-03-11T15:06:42.761Z,15.83
2023-03-11T15:09:19.472Z,15.80
2023-03-11T15:11:47.811Z,16.11
2023-03-11T15:14:17.208Z,15.62
2023-03-11T15:16:43.634Z,15.38
2023-03-11T15:19:28.591Z,14.97
2023-03-11T15:21:58.531Z,14.78
2023-03-11T15:24:27.882Z,14.87
2023-03-11T15:26:57.430Z,14.31
2023-03-11T15:29:26.511Z,14.03
2023-03-11T15:31:53.082Z,13.59
2023-03-11T15:34:25.306Z,14.02
2023-03-11T15:36:52.845Z,14.29
2023-03-11T15:39:26.220Z,14.18
2023-03-11T15:42:08.066Z,13.54
2023-03-11T15:44:37.253Z,13.32
2023-03-11T15:47:04.190Z,12.88
2023-03-11T15:49:30.798Z,12.80
2023-03-11T15:52:01.012Z,12.54
2023-03-11T15:54:27.904Z,12.20
2023-03-11T15:56:56.350Z,12.46
2023-03-11T15:59:23.400Z,12.58
2023-03-11T16:02:11.672Z,12.47
2023-03-11T16:04:38.574Z,11.66
2023-03-11T16:07:08.412Z,11.76
2023-03-11T16:09:35.351Z,10.80
2023-03-11T16:12:05.187Z,10.24
2023-03-11T16:14:31.613Z,9.86
2023-03-11T16:16:58.129Z,9.34
2023-03-11T16:19:24.718Z,8.75
2023-03-11T16:21:51.301Z,8.17
2023-03-11T16:24:24.719Z,7.35
2023-03-11T16:26:52.911Z,6.94
2023-03-11T16:29:30.593Z,6.94
2023-03-11T16:31:57.148Z,6.41
2023-03-11T16:34:23.614Z,6.20
2023-03-11T16:36:53.025Z,6.20
2023-03-11T16:39:19.417Z,5.94
2023-03-11T16:41:45.956Z,5.85
2023-03-11T16:44:12.382Z,5.78
2023-03-11T16:46:38.987Z,5.55
2023-03-11T16:49:05.975Z,5.50
2023-03-11T16:51:33.000Z,5.32
2023-03-11T16:53:59.703Z,5.31
2023-03-11T16:56:26.482Z,5.26
2023-03-11T16:58:52.959Z,5.26
2023-03-11T17:01:21.571Z,5.23
2023-03-11T17:03:51.980Z,5.26
2023-03-11T17:06:19.714Z,5.20
2023-03-11T17:08:49.053Z,5.01
2023-03-11T17:11:21.106Z,4.93
2023-03-11T17:13:47.922Z,4.76
2023-03-11T17:16:14.579Z,4.65
2023-03-11T17:18:41.753Z,4.50
2023-03-11T17:21:11.828Z,4.36
2023-03-11T17:23:38.395Z,4.04
2023-03-11T17:26:31.246Z,4.07
2023-03-11T17:28:57.694Z,3.86
2023-03-11T17:31:24.410Z,3.83
2023-03-11T17:33:50.889Z,3.78
2023-03-11T17:36:18.306Z,3.69
2023-03-11T17:38:45.766Z,3.67
2023-03-11T17:41:16.689Z,3.48
2023-03-11T17:43:43.789Z,3.25
2023-03-11T17:46:17.284Z,3.33
2023-03-11T17:48:49.117Z,3.28
2023-03-11T17:51:18.256Z,3.26
2023-03-11T17:53:46.358Z,3.16
2023-03-11T17:56:15.761Z,3.07
2023-03-11T17:58:42.388Z,2.99
2023-03-11T18:01:12.994Z,2.87
2023-03-11T18:03:39.557Z,2.79
2023-03-11T18:06:06.851Z,2.76
2023-03-11T18:08:35.299Z,2.73
2023-03-11T18:11:07.970Z,2.67
2023-03-11T18:13:59.637Z,2.57
2023-03-11T18:16:28.847Z,2.35
2023-03-11T18:18:58.448Z,2.40
2023-03-11T18:21:30.067Z,2.42
2023-03-11T18:23:58.881Z,2.32
